Time;durP1;ratioP1;P1;durP2;ratioP2;P2;SDS_P1;SDS_P2;PMS_P1;PMS_P2;Temp;Humidity;BMP_temperature;BMP_pressure;BME280_temperature;BME280_humidity;BME280_pressure;Samples;Min_cycle;Max_cycle;Signal;HPM_P1;HPM_P2
2021/04/24 00:02:11;;;;;;;2.88;0.93;;;;;;;5.65;nan;102432.50;4997595;28;20080;-74
2021/04/24 00:04:38;;;;;;;2.78;0.93;;;;;;;5.68;nan;102440.13;4980403;28;20025;-74
2021/04/24 00:07:06;;;;;;;1.88;1.08;;;;;;;5.79;nan;102438.91;4998755;28;20041;-74
2021/04/24 00:09:31;;;;;;;3.47;1.73;;;;;;;5.74;nan;102443.91;4999915;28;20577;-74
2021/04/24 00:11:57;;;;;;;3.83;1.35;;;;;;;5.80;nan;102432.56;4996544;28;20042;-74
2021/04/24 00:14:23;;;;;;;3.15;1.23;;;;;;;5.84;nan;102438.38;4996409;28;20037;-74
2021/04/24 00:16:48;;;;;;;4.60;1.02;;;;;;;5.85;nan;102438.19;4995824;28;20034;-74
2021/04/24 00:19:14;;;;;;;3.55;1.60;;;;;;;5.85;nan;102440.84;4981102;28;20456;-74
2021/04/24 00:21:39;;;;;;;3.90;1.25;;;;;;;5.89;nan;102428.84;4997688;28;20055;-74
2021/04/24 00:24:05;;;;;;;2.13;1.20;;;;;;;5.89;nan;102430.69;4978668;28;20076;-74
2021/04/24 00:26:31;;;;;;;3.33;1.20;;;;;;;5.95;nan;102424.72;4980010;28;20040;-74
2021/04/24 00:28:56;;;;;;;4.18;1.48;;;;;;;5.97;nan;102434.16;4976678;28;20034;-74
2021/04/24 00:31:22;;;;;;;3.88;1.45;;;;;;;5.99;nan;102432.16;4984666;28;20036;-74
2021/04/24 00:33:47;;;;;;;3.95;1.60;;;;;;;5.97;nan;102431.50;4996407;28;20053;-74
2021/04/24 00:36:13;;;;;;;2.50;1.40;;;;;;;5.96;nan;102437.00;4984535;28;20133;-74
2021/04/24 00:38:39;;;;;;;3.70;1.75;;;;;;;5.94;nan;102439.00;4972992;28;20049;-74
2021/04/24 00:41:05;;;;;;;8.13;1.60;;;;;;;5.96;nan;102434.34;4995088;28;20065;-74
2021/04/24 00:43:31;;;;;;;5.32;1.30;;;;;;;5.91;nan;102431.38;4978225;28;20273;-74
2021/04/24 00:45:56;;;;;;;3.78;1.63;;;;;;;5.95;nan;102435.34;4994620;28;20034;-74
2021/04/24 00:48:22;;;;;;;3.05;1.30;;;;;;;5.93;nan;102429.38;4999165;28;20026;-74
2021/04/24 00:50:47;;;;;;;3.50;1.25;;;;;;;5.96;nan;102429.03;4980201;28;20585;-74
2021/04/24 00:53:13;;;;;;;2.85;1.25;;;;;;;5.93;nan;102424.06;4994118;28;20061;-74
2021/04/24 00:55:40;;;;;;;6.03;1.63;;;;;;;5.88;nan;102427.19;4994992;28;20037;-74
2021/04/24 00:58:11;;;;;;;5.05;1.50;;;;;;;5.95;nan;102428.19;4979418;28;20712;-74
2021/04/24 01:00:36;;;;;;;2.67;1.08;;;;;;;5.87;nan;102422.88;4982818;28;20029;-74
2021/04/24 01:03:02;;;;;;;3.05;1.13;;;;;;;5.84;nan;102427.72;4978279;28;20034;-74
2021/04/24 01:05:32;;;;;;;3.10;1.55;;;;;;;5.85;nan;102432.88;4997290;28;20029;-74
2021/04/24 01:07:58;;;;;;;4.55;1.48;;;;;;;5.81;nan;102433.41;4999409;28;20037;-74
2021/04/24 01:10:25;;;;;;;5.28;1.33;;;;;;;5.85;nan;102434.69;4981425;28;20057;-74
2021/04/24 01:12:50;;;;;;;4.28;2.35;;;;;;;5.81;nan;102441.38;4996583;28;20034;-74
2021/04/24 01:15:18;;;;;;;3.53;1.50;;;;;;;5.74;nan;102434.13;4977898;28;20669;-74
2021/04/24 01:17:44;;;;;;;5.45;1.80;;;;;;;5.70;nan;102437.28;4996515;28;20034;-74
2021/04/24 01:20:12;;;;;;;5.00;1.83;;;;;;;5.55;nan;102434.53;4993694;28;20037;-74
2021/04/24 01:22:39;;;;;;;3.40;1.55;;;;;;;5.47;nan;102431.91;4996522;28;20029;-74
2021/04/24 01:25:08;;;;;;;4.20;1.85;;;;;;;5.42;nan;102440.41;4999910;28;20081;-74
2021/04/24 01:27:33;;;;;;;5.38;1.88;;;;;;;5.40;nan;102441.59;4997903;28;20026;-74
2021/04/24 01:29:59;;;;;;;5.90;1.60;;;;;;;5.35;nan;102434.13;4997745;28;20635;-74
2021/04/24 01:32:25;;;;;;;3.67;2.00;;;;;;;5.41;nan;102432.63;4978990;28;20026;-74
2021/04/24 01:34:51;;;;;;;3.47;1.80;;;;;;;5.41;nan;102436.09;4995749;28;20556;-74
2021/04/24 01:37:16;;;;;;;5.55;1.77;;;;;;;5.40;nan;102442.41;4982152;28;20022;-74
2021/04/24 01:39:42;;;;;;;5.68;2.10;;;;;;;5.33;nan;102435.28;4991442;28;20033;-74
2021/04/24 01:42:07;;;;;;;5.30;1.60;;;;;;;5.43;nan;102434.09;4982145;28;20042;-74
2021/04/24 01:44:33;;;;;;;5.53;1.95;;;;;;;5.47;nan;102431.91;4994102;28;21708;-74
2021/04/24 01:46:59;;;;;;;4.38;1.67;;;;;;;5.39;nan;102427.47;4993094;28;20497;-74
2021/04/24 01:49:24;;;;;;;3.35;2.03;;;;;;;5.47;nan;102423.94;4993562;28;20030;-74
2021/04/24 01:51:50;;;;;;;4.30;1.92;;;;;;;5.41;nan;102424.63;4997673;28;20543;-74
2021/04/24 01:54:16;;;;;;;4.80;2.05;;;;;;;5.34;nan;102418.34;4979393;28;21082;-74
2021/04/24 01:56:45;;;;;;;5.60;1.92;;;;;;;5.46;nan;102415.13;4977461;28;20418;-74
2021/04/24 01:59:10;;;;;;;5.15;2.17;;;;;;;5.35;nan;102406.69;4994364;28;20503;-74
2021/04/24 02:01:36;;;;;;;6.65;2.20;;;;;;;5.21;nan;102410.94;4992591;28;20089;-74
2021/04/24 02:04:01;;;;;;;6.15;2.13;;;;;;;5.12;nan;102404.81;4993306;28;20092;-74
2021/04/24 02:06:27;;;;;;;3.20;1.80;;;;;;;5.03;nan;102408.50;4990639;28;20397;-74
2021/04/24 02:08:53;;;;;;;7.05;2.20;;;;;;;4.99;nan;102401.84;4994506;28;20038;-74
2021/04/24 02:11:18;;;;;;;7.25;2.25;;;;;;;4.92;nan;102394.75;4994455;28;20025;-74
2021/04/24 02:13:44;;;;;;;5.38;2.00;;;;;;;4.80;nan;102397.75;4995824;28;20057;-74
2021/04/24 02:16:12;;;;;;;4.50;1.90;;;;;;;4.82;nan;102393.09;4994604;28;20091;-74
2021/04/24 02:18:37;;;;;;;5.97;2.10;;;;;;;4.76;nan;102390.31;4990837;28;20605;-74
2021/04/24 02:21:04;;;;;;;7.20;1.80;;;;;;;4.57;nan;102396.81;4997079;28;20044;-74
2021/04/24 02:23:35;;;;;;;7.43;1.73;;;;;;;4.59;nan;102394.00;4998141;28;20337;-74
2021/04/24 02:26:01;;;;;;;5.45;2.20;;;;;;;4.58;nan;102392.34;4995617;28;20030;-74
2021/04/24 02:28:26;;;;;;;5.80;2.25;;;;;;;4.57;nan;102393.34;4975987;28;21385;-74
2021/04/24 02:30:52;;;;;;;4.35;2.45;;;;;;;4.54;nan;102392.69;4997427;28;20393;-74
2021/04/24 02:33:18;;;;;;;4.40;2.28;;;;;;;4.54;nan;102387.38;4992287;28;20266;-74
2021/04/24 02:35:56;;;;;;;3.47;1.80;;;;;;;4.44;nan;102385.88;4971389;28;20041;-74
2021/04/24 02:38:27;;;;;;;5.88;2.17;;;;;;;4.40;nan;102385.38;4993673;28;20103;-74
2021/04/24 02:40:54;;;;;;;5.22;2.13;;;;;;;4.43;nan;102389.53;4977096;28;20127;-74
2021/04/24 02:43:20;;;;;;;4.25;2.03;;;;;;;4.45;nan;102392.84;4981038;28;20085;-74
2021/04/24 02:45:46;;;;;;;5.80;2.40;;;;;;;4.47;nan;102381.06;4990002;28;20041;-73
2021/04/24 02:48:12;;;;;;;7.32;2.70;;;;;;;4.46;nan;102386.53;4996772;28;20038;-74
2021/04/24 02:50:38;;;;;;;5.43;2.13;;;;;;;4.42;nan;102382.56;4992992;28;20106;-74
2021/04/24 02:53:04;;;;;;;5.88;2.55;;;;;;;4.40;nan;102384.56;4982129;28;20025;-74
2021/04/24 02:55:30;;;;;;;7.10;2.85;;;;;;;4.38;nan;102381.25;4979314;28;20037;-74
2021/04/24 02:57:56;;;;;;;4.95;2.72;;;;;;;4.34;nan;102383.41;4995147;28;20603;-74
2021/04/24 03:00:22;;;;;;;6.65;2.22;;;;;;;4.39;nan;102378.41;4993192;28;20022;-74
2021/04/24 03:03:00;;;;;;;7.38;2.53;;;;;;;4.37;nan;102388.38;4992715;28;20030;-74
2021/04/24 03:05:26;;;;;;;7.00;2.30;;;;;;;4.37;nan;102379.59;4979237;28;20034;-74
2021/04/24 03:07:52;;;;;;;5.07;2.38;;;;;;;4.40;nan;102388.03;4991064;28;20076;-74
2021/04/24 03:10:17;;;;;;;5.47;2.58;;;;;;;4.28;nan;102385.88;4995514;28;20580;-74
2021/04/24 03:12:43;;;;;;;6.22;2.38;;;;;;;4.25;nan;102390.53;4992995;28;20032;-74
2021/04/24 03:15:09;;;;;;;11.07;2.72;;;;;;;4.23;nan;102384.56;4977024;28;20044;-74
2021/04/24 03:17:35;;;;;;;4.50;2.35;;;;;;;4.33;nan;102389.72;4977672;28;20037;-73
2021/04/24 03:20:01;;;;;;;5.30;2.35;;;;;;;4.23;nan;102387.22;4997083;28;20104;-74
2021/04/24 03:22:26;;;;;;;5.03;2.15;;;;;;;4.28;nan;102392.00;4997914;28;20085;-74
2021/04/24 03:24:52;;;;;;;9.23;2.40;;;;;;;4.21;nan;102396.34;4977074;28;20124;-74
2021/04/24 03:27:17;;;;;;;6.45;2.55;;;;;;;4.22;nan;102393.53;4997626;28;20471;-74
2021/04/24 03:29:43;;;;;;;4.75;2.47;;;;;;;4.31;nan;102396.16;4995047;28;20034;-73
2021/04/24 03:32:08;;;;;;;5.68;2.67;;;;;;;4.27;nan;102393.00;4997325;28;20029;-74
2021/04/24 03:34:34;;;;;;;6.57;2.35;;;;;;;4.38;nan;102397.16;4995519;28;20026;-74
2021/04/24 03:37:00;;;;;;;5.50;2.33;;;;;;;4.34;nan;102391.38;4994884;28;20030;-74
2021/04/24 03:39:25;;;;;;;5.53;3.00;;;;;;;4.21;nan;102396.34;4996596;28;20643;-74
2021/04/24 03:41:52;;;;;;;8.02;2.47;;;;;;;4.31;nan;102394.38;4999074;28;20029;-74
2021/04/24 03:44:18;;;;;;;6.82;2.42;;;;;;;4.14;nan;102395.34;4996864;28;20026;-73
2021/04/24 03:46:43;;;;;;;5.63;2.70;;;;;;;4.12;nan;102395.50;4981869;28;20029;-74
2021/04/24 03:49:09;;;;;;;5.68;2.25;;;;;;;4.13;nan;102393.66;4997279;28;20034;-74
2021/04/24 03:51:34;;;;;;;12.45;3.60;;;;;;;4.19;nan;102387.72;4998717;28;20040;-74
2021/04/24 03:54:00;;;;;;;7.88;2.67;;;;;;;4.19;nan;102385.91;4995317;28;20787;-73
2021/04/24 03:56:25;;;;;;;8.90;3.10;;;;;;;4.12;nan;102392.00;4982020;28;20057;-74
2021/04/24 03:58:51;;;;;;;8.50;3.92;;;;;;;4.14;nan;102395.34;4997564;28;20037;-74
2021/04/24 04:01:17;;;;;;;6.85;3.10;;;;;;;4.09;nan;102397.66;4999255;28;20116;-73
2021/04/24 04:03:42;;;;;;;10.63;3.53;;;;;;;4.08;nan;102399.47;4998846;28;20044;-74
2021/04/24 04:06:08;;;;;;;8.75;3.55;;;;;;;4.14;nan;102395.34;4995843;28;20022;-74
2021/04/24 04:08:33;;;;;;;8.88;3.38;;;;;;;4.22;nan;102396.16;4997008;28;20033;-74
2021/04/24 04:10:59;;;;;;;13.25;3.78;;;;;;;4.25;nan;102405.63;4984901;28;20484;-74
2021/04/24 04:13:25;;;;;;;8.43;3.53;;;;;;;4.31;nan;102404.97;4978657;28;20129;-73
2021/04/24 04:15:50;;;;;;;7.95;3.17;;;;;;;4.36;nan;102407.94;4985585;28;20029;-74
2021/04/24 04:18:18;;;;;;;8.75;3.28;;;;;;;4.42;nan;102403.78;4980548;28;20032;-73
2021/04/24 04:20:50;;;;;;;7.57;3.63;;;;;;;4.38;nan;102407.78;4998796;28;20092;-74
2021/04/24 04:23:16;;;;;;;12.65;3.75;;;;;;;4.57;nan;102409.25;4997069;28;20663;-74
2021/04/24 04:25:43;;;;;;;10.77;4.50;;;;;;;4.34;nan;102407.28;4996688;28;20512;-73
2021/04/24 04:28:09;;;;;;;9.55;4.63;;;;;;;4.64;nan;102412.88;4978969;28;20101;-74
2021/04/24 04:30:37;;;;;;;11.73;4.72;;;;;;;4.63;nan;102409.41;4995554;28;20044;-74
2021/04/24 04:33:04;;;;;;;9.85;4.03;;;;;;;4.89;nan;102413.69;4994988;28;20113;-74
2021/04/24 04:35:30;;;;;;;10.25;3.92;;;;;;;5.05;nan;102411.00;4978302;28;20898;-73
2021/04/24 04:37:56;;;;;;;10.18;4.13;;;;;;;5.05;nan;102414.47;4980258;28;20040;-74
2021/04/24 04:40:22;;;;;;;10.32;4.68;;;;;;;5.01;nan;102418.44;4979336;28;20492;-74
2021/04/24 04:42:48;;;;;;;11.63;4.40;;;;;;;5.00;nan;102414.13;4988688;28;20045;-74
2021/04/24 04:45:15;;;;;;;11.38;4.85;;;;;;;5.12;nan;102418.09;4979591;28;20100;-74
2021/04/24 04:47:41;;;;;;;12.20;4.35;;;;;;;5.23;nan;102416.91;4994791;28;20034;-74
2021/04/24 04:50:10;;;;;;;10.55;4.60;;;;;;;5.02;nan;102413.97;4995225;28;20038;-74
2021/04/24 04:52:36;;;;;;;9.73;4.18;;;;;;;4.92;nan;102416.81;4977570;28;20026;-74
2021/04/24 04:55:02;;;;;;;11.43;5.03;;;;;;;4.91;nan;102415.19;4979525;28;20045;-74
2021/04/24 04:57:28;;;;;;;9.75;4.20;;;;;;;4.87;nan;102413.03;4980417;28;20026;-74
2021/04/24 04:59:53;;;;;;;14.80;5.18;;;;;;;4.89;nan;102408.38;4977473;28;20033;-74
2021/04/24 05:02:19;;;;;;;10.70;4.90;;;;;;;4.88;nan;102414.69;4977691;28;20060;-74
2021/04/24 05:04:45;;;;;;;10.18;4.07;;;;;;;4.87;nan;102416.50;4976013;28;20037;-74
2021/04/24 05:07:11;;;;;;;12.43;5.63;;;;;;;4.79;nan;102427.97;4994455;28;20113;-74
2021/04/24 05:09:38;;;;;;;17.40;5.90;;;;;;;4.93;nan;102420.31;4981220;28;20306;-73
2021/04/24 05:12:04;;;;;;;9.77;4.55;;;;;;;5.13;nan;102425.06;4993660;28;20660;-74
2021/04/24 05:14:29;;;;;;;13.18;4.88;;;;;;;5.31;nan;102421.34;4977734;28;21952;-74
2021/04/24 05:16:55;;;;;;;13.23;6.25;;;;;;;5.32;nan;102428.31;4999198;28;20041;-74
2021/04/24 05:19:20;;;;;;;12.40;4.78;;;;;;;5.55;nan;102428.38;4980646;28;20061;-74
2021/04/24 05:21:46;;;;;;;9.90;4.38;;;;;;;5.69;nan;102430.31;5002643;28;20054;-76
2021/04/24 05:24:13;;;;;;;10.77;4.88;;;;;;;5.81;nan;102436.06;4985515;28;20022;-76
2021/04/24 05:26:39;;;;;;;11.88;4.78;;;;;;;5.94;nan;102441.69;5007179;28;20033;-76
2021/04/24 05:29:04;;;;;;;14.02;4.82;;;;;;;5.75;nan;102429.63;4987655;28;20100;-77
2021/04/24 05:31:30;;;;;;;10.32;4.50;;;;;;;5.80;nan;102442.38;4998383;28;20040;-77
2021/04/24 05:33:57;;;;;;;9.82;5.20;;;;;;;5.97;nan;102436.00;5004104;28;20113;-77
2021/04/24 05:36:24;;;;;;;8.52;4.22;;;;;;;6.02;nan;102438.94;5005997;28;20076;-77
2021/04/24 05:38:49;;;;;;;9.43;3.75;;;;;;;6.20;nan;102436.81;4983260;28;20057;-77
2021/04/24 05:41:20;;;;;;;12.82;4.05;;;;;;;6.49;nan;102433.44;4997219;28;20069;-77
2021/04/24 05:43:47;;;;;;;15.05;5.70;;;;;;;6.61;nan;102437.31;5008299;28;20022;-77
2021/04/24 05:46:12;;;;;;;12.52;5.13;;;;;;;6.24;nan;102438.13;5015990;28;20030;-78
2021/04/24 05:48:38;;;;;;;14.90;4.72;;;;;;;6.65;nan;102438.63;5005291;28;20109;-76
2021/04/24 05:51:04;;;;;;;11.07;3.92;;;;;;;6.85;nan;102438.94;5005685;28;20036;-79
2021/04/24 05:53:29;;;;;;;9.65;4.05;;;;;;;6.92;nan;102439.84;4999624;28;20036;-77
2021/04/24 05:55:55;;;;;;;9.25;4.05;;;;;;;7.21;nan;102430.22;5001364;28;20049;-79
2021/04/24 05:58:20;;;;;;;7.50;3.05;;;;;;;7.24;nan;102435.16;4988154;28;20088;-78
2021/04/24 06:00:46;;;;;;;7.25;4.07;;;;;;;6.76;nan;102441.84;5002935;28;20026;-77
2021/04/24 06:03:11;;;;;;;9.07;4.03;;;;;;;6.64;nan;102446.75;4985395;28;20021;-77
2021/04/24 06:05:37;;;;;;;11.80;3.55;;;;;;;6.94;nan;102445.00;4998368;28;20596;-78
2021/04/24 06:08:03;;;;;;;7.82;3.75;;;;;;;7.30;nan;102438.94;5002028;28;20028;-77
2021/04/24 06:10:28;;;;;;;9.98;4.15;;;;;;;7.10;nan;102438.66;4985492;28;20601;-79
2021/04/24 06:12:54;;;;;;;11.13;4.00;;;;;;;7.25;nan;102434.16;4982340;28;20033;-77
2021/04/24 06:15:20;;;;;;;6.35;3.97;;;;;;;6.92;nan;102447.84;5001451;28;20139;-77
2021/04/24 06:17:47;;;;;;;6.75;3.25;;;;;;;6.99;nan;102434.59;4989527;28;20045;-77
2021/04/24 06:20:13;;;;;;;9.68;3.65;;;;;;;7.52;nan;102440.63;4998064;28;20430;-74
2021/04/24 06:22:40;;;;;;;9.70;3.65;;;;;;;7.43;nan;102431.94;4980419;28;20037;-74
2021/04/24 06:25:08;;;;;;;9.48;4.03;;;;;;;7.71;nan;102434.72;4991191;28;20088;-75
2021/04/24 06:27:33;;;;;;;8.60;3.22;;;;;;;7.74;nan;102441.53;4979945;28;20025;-75
2021/04/24 06:29:59;;;;;;;14.48;3.40;;;;;;;8.03;nan;102444.09;4987404;28;20416;-73
2021/04/24 06:32:25;;;;;;;7.93;3.58;;;;;;;8.11;nan;102449.34;4994201;28;20056;-74
2021/04/24 06:34:51;;;;;;;9.70;3.40;;;;;;;8.29;nan;102448.06;4986679;28;20033;-74
2021/04/24 06:37:16;;;;;;;7.38;3.50;;;;;;;8.56;nan;102449.13;4975109;28;20060;-74
2021/04/24 06:39:42;;;;;;;10.15;3.35;;;;;;;8.69;nan;102443.91;4992931;28;20038;-74
2021/04/24 06:42:07;;;;;;;12.88;3.40;;;;;;;8.52;nan;102448.69;4991052;28;20523;-75
2021/04/24 06:44:33;;;;;;;7.35;3.15;;;;;;;8.58;nan;102447.09;4973826;28;20030;-75
2021/04/24 06:46:58;;;;;;;6.95;3.03;;;;;;;8.76;nan;102455.47;4991541;28;20116;-74
2021/04/24 06:49:24;;;;;;;8.48;3.55;;;;;;;9.04;nan;102450.94;4969866;28;20026;-74
2021/04/24 06:51:50;;;;;;;8.65;2.90;;;;;;;8.89;nan;102457.41;4980719;28;20029;-74
2021/04/24 06:54:16;;;;;;;13.07;2.88;;;;;;;9.02;nan;102447.63;4994720;28;20069;-74
2021/04/24 06:56:42;;;;;;;10.32;3.15;;;;;;;8.64;nan;102455.19;4993390;28;20644;-74
2021/04/24 06:59:07;;;;;;;8.88;3.30;;;;;;;8.31;nan;102449.53;5000247;28;20032;-75
2021/04/24 07:01:33;;;;;;;8.05;2.97;;;;;;;7.96;nan;102447.72;4979610;28;20025;-74
2021/04/24 07:03:58;;;;;;;10.82;3.13;;;;;;;8.29;nan;102456.06;4998283;28;20030;-74
2021/04/24 07:06:24;;;;;;;8.93;3.30;;;;;;;8.75;nan;102454.63;4981884;28;20022;-74
2021/04/24 07:08:49;;;;;;;8.55;2.80;;;;;;;9.02;nan;102447.63;4978338;28;20022;-74
2021/04/24 07:11:15;;;;;;;7.28;3.08;;;;;;;8.97;nan;102450.06;4999899;28;20378;-74
2021/04/24 07:13:41;;;;;;;8.80;3.30;;;;;;;8.73;nan;102445.16;4977544;28;20030;-74
2021/04/24 07:16:10;;;;;;;7.30;2.75;;;;;;;8.51;nan;102448.91;4978313;28;20036;-74
2021/04/24 07:18:37;;;;;;;9.57;4.32;;;;;;;8.81;nan;102447.72;4995569;28;20027;-75
2021/04/24 07:21:04;;;;;;;7.22;3.25;;;;;;;9.41;nan;102445.38;4999091;28;20033;-74
2021/04/24 07:23:29;;;;;;;10.55;3.45;;;;;;;9.21;nan;102443.44;4984352;28;20105;-74
2021/04/24 07:25:55;;;;;;;5.35;2.20;;;;;;;8.99;nan;102440.03;4981769;28;20045;-74
2021/04/24 07:28:20;;;;;;;9.32;3.15;;;;;;;8.59;nan;102441.56;4981374;28;20025;-77
2021/04/24 07:30:47;;;;;;;8.50;3.35;;;;;;;8.17;nan;102443.22;4978989;28;20165;-74
2021/04/24 07:33:12;;;;;;;5.60;3.00;;;;;;;8.06;nan;102443.72;4980859;28;20030;-74
2021/04/24 07:35:38;;;;;;;5.78;2.83;;;;;;;8.62;nan;102441.19;4997759;28;20037;-74
2021/04/24 07:38:04;;;;;;;9.20;3.28;;;;;;;9.44;nan;102443.13;4985337;28;20034;-74
2021/04/24 07:40:29;;;;;;;8.80;3.30;;;;;;;9.74;nan;102451.69;4997233;28;20073;-74
2021/04/24 07:42:55;;;;;;;8.88;3.53;;;;;;;10.10;nan;102450.56;4982624;28;20038;-74
2021/04/24 07:45:20;;;;;;;7.35;2.58;;;;;;;10.50;nan;102451.44;4981520;28;20478;-75
2021/04/24 07:47:48;;;;;;;6.25;3.20;;;;;;;11.01;nan;102450.78;5003014;28;20060;-75
2021/04/24 07:50:17;;;;;;;5.18;3.15;;;;;;;11.36;nan;102446.78;4979696;28;20104;-74
2021/04/24 07:52:42;;;;;;;9.60;3.60;;;;;;;11.48;nan;102446.91;5002392;28;20029;-74
2021/04/24 07:55:08;;;;;;;9.25;3.05;;;;;;;10.30;nan;102454.09;4982269;28;20030;-74
2021/04/24 07:57:34;;;;;;;14.02;6.55;;;;;;;9.80;nan;102450.88;4996301;28;20025;-74
2021/04/24 07:59:59;;;;;;;10.85;6.53;;;;;;;10.15;nan;102458.78;4999379;28;20030;-75
2021/04/24 08:02:26;;;;;;;15.60;5.90;;;;;;;10.39;nan;102460.91;4985277;28;20519;-75
2021/04/24 08:04:52;;;;;;;8.95;3.40;;;;;;;10.48;nan;102462.38;5001086;28;20909;-74
2021/04/24 08:07:17;;;;;;;6.70;3.60;;;;;;;11.27;nan;102458.75;5001005;28;20033;-75
2021/04/24 08:09:44;;;;;;;9.90;2.80;;;;;;;11.74;nan;102449.50;4994710;28;20387;-74
2021/04/24 08:12:10;;;;;;;5.32;2.42;;;;;;;11.78;nan;102453.44;4998076;28;20552;-75
2021/04/24 08:14:36;;;;;;;7.30;2.70;;;;;;;11.59;nan;102450.81;4998862;28;20101;-74
2021/04/24 08:17:02;;;;;;;6.55;3.17;;;;;;;11.37;nan;102451.09;5001378;28;20034;-75
2021/04/24 08:19:28;;;;;;;4.05;2.40;;;;;;;11.33;nan;102449.88;4987436;28;20120;-75
2021/04/24 08:21:55;;;;;;;10.15;2.80;;;;;;;11.02;nan;102457.81;4983448;28;20120;-74
2021/04/24 08:24:21;;;;;;;7.22;2.47;;;;;;;10.32;nan;102465.44;4995731;28;20026;-75
2021/04/24 08:26:47;;;;;;;7.35;2.67;;;;;;;9.86;nan;102457.28;5000875;28;20037;-74
2021/04/24 08:29:12;;;;;;;7.22;2.60;;;;;;;9.86;nan;102458.09;4976848;28;20022;-74
2021/04/24 08:31:39;;;;;;;6.50;3.20;;;;;;;11.01;nan;102466.88;4981624;28;20029;-74
2021/04/24 08:34:05;;;;;;;6.53;2.40;;;;;;;11.83;nan;102460.00;4982681;28;20048;-74
2021/04/24 08:36:31;;;;;;;5.13;2.60;;;;;;;12.38;nan;102458.41;4990672;28;20026;-75
2021/04/24 08:38:56;;;;;;;4.95;2.45;;;;;;;12.44;nan;102454.06;4980250;28;20029;-74
2021/04/24 08:41:24;;;;;;;4.05;2.22;;;;;;;12.14;nan;102464.59;4977834;28;20393;-75
2021/04/24 08:43:55;;;;;;;6.63;2.10;;;;;;;11.77;nan;102458.97;4983095;28;20053;-74
2021/04/24 08:46:22;;;;;;;7.60;2.80;;;;;;;11.41;nan;102459.56;4998925;28;20579;-74
2021/04/24 08:48:48;;;;;;;7.95;2.92;;;;;;;10.82;nan;102465.88;4998911;28;20509;-74
2021/04/24 08:51:14;;;;;;;5.57;2.38;;;;;;;10.38;nan;102461.13;4997497;28;20033;-74
2021/04/24 08:53:40;;;;;;;5.22;2.90;;;;;;;10.71;nan;102469.16;4978882;28;20902;-75
2021/04/24 08:56:05;;;;;;;7.10;2.60;;;;;;;10.80;nan;102476.81;4978082;28;20037;-75
2021/04/24 08:58:31;;;;;;;6.35;3.15;;;;;;;10.78;nan;102461.97;4981546;28;20060;-74
2021/04/24 09:00:57;;;;;;;3.55;2.45;;;;;;;11.30;nan;102463.69;4983511;28;20045;-75
2021/04/24 09:03:23;;;;;;;6.88;2.40;;;;;;;11.09;nan;102461.28;4999639;28;20057;-75
2021/04/24 09:05:53;;;;;;;7.68;2.90;;;;;;;10.54;nan;102471.44;4980524;28;20113;-75
2021/04/24 09:08:24;;;;;;;5.07;2.67;;;;;;;11.43;nan;102462.84;4991080;28;20523;-74
2021/04/24 09:10:52;;;;;;;8.50;3.05;;;;;;;11.87;nan;102461.25;4985028;28;20547;-74
2021/04/24 09:13:20;;;;;;;5.20;2.30;;;;;;;11.62;nan;102464.63;4996201;28;20068;-75
2021/04/24 09:15:46;;;;;;;3.95;2.25;;;;;;;11.79;nan;102468.50;4979199;28;20030;-75
2021/04/24 09:18:12;;;;;;;5.25;2.58;;;;;;;11.35;nan;102469.28;4977332;28;20408;-75
2021/04/24 09:20:51;;;;;;;4.03;2.58;;;;;;;11.28;nan;102478.38;4995914;28;20026;-75
2021/04/24 09:23:22;;;;;;;5.75;2.33;;;;;;;11.66;nan;102465.84;4996676;28;20068;-75
2021/04/24 09:25:51;;;;;;;4.85;2.30;;;;;;;11.45;nan;102466.13;4979601;28;20034;-75
2021/04/24 09:28:32;;;;;;;5.32;1.85;;;;;;;11.45;nan;102471.50;4995377;28;20057;-75
2021/04/24 09:30:59;;;;;;;6.03;2.40;;;;;;;12.04;nan;102475.81;4995555;28;20036;-75
2021/04/24 09:33:32;;;;;;;4.70;2.28;;;;;;;12.16;nan;102470.56;4985183;28;20030;-75
2021/04/24 09:35:57;;;;;;;4.15;2.33;;;;;;;12.14;nan;102470.78;4981373;28;20034;-75
2021/04/24 09:38:32;;;;;;;6.82;2.60;;;;;;;11.98;nan;102464.06;4995882;28;20044;-75
2021/04/24 09:41:18;;;;;;;7.13;3.90;;;;;;;12.07;nan;102461.97;4982173;28;20543;-75
2021/04/24 09:43:57;;;;;;;11.50;4.18;;;;;;;11.82;nan;102464.56;4999732;28;20277;-75
2021/04/24 09:46:25;;;;;;;5.72;2.50;;;;;;;11.68;nan;102458.41;5000484;28;20511;-75
2021/04/24 09:49:11;;;;;;;6.78;2.40;;;;;;;11.39;nan;102457.06;4979724;28;20065;-75
2021/04/24 09:51:54;;;;;;;3.80;2.20;;;;;;;11.82;nan;102461.06;4993842;28;20030;-75
2021/04/24 09:54:33;;;;;;;5.22;2.00;;;;;;;11.92;nan;102456.88;4999203;28;20034;-75
2021/04/24 09:57:08;;;;;;;5.95;2.25;;;;;;;12.67;nan;102454.28;4998177;28;20442;-74
2021/04/24 09:59:57;;;;;;;5.95;2.90;;;;;;;13.51;nan;102452.81;4998631;28;20068;-75
2021/04/24 10:02:39;;;;;;;6.05;2.22;;;;;;;12.87;nan;102446.84;4994994;28;20117;-74
2021/04/24 10:05:14;;;;;;;4.35;1.80;;;;;;;13.21;nan;102444.66;4994795;28;20849;-75
2021/04/24 10:07:47;;;;;;;5.38;1.92;;;;;;;12.78;nan;102450.03;4999098;28;20033;-74
2021/04/24 10:10:23;;;;;;;4.90;2.30;;;;;;;13.24;nan;102447.72;4996037;28;20026;-74
2021/04/24 10:12:56;;;;;;;4.78;1.92;;;;;;;12.25;nan;102455.84;4975899;28;20037;-74
2021/04/24 10:15:41;;;;;;;6.22;2.50;;;;;;;12.31;nan;102452.28;4979341;28;20022;-74
2021/04/24 10:18:08;;;;;;;;;;;;;;;12.10;nan;102456.16;4998229;28;20924;-75
2021/04/24 10:20:34;;;;;;;5.43;2.70;;;;;;;12.22;nan;102451.75;4977819;28;19913;-75
2021/04/24 10:23:07;;;;;;;7.20;2.65;;;;;;;11.23;nan;102462.91;4981640;28;20030;-74
2021/04/24 10:25:32;;;;;;;6.18;2.70;;;;;;;11.65;nan;102458.00;4993851;28;20026;-75
2021/04/24 10:27:58;;;;;;;5.45;2.58;;;;;;;11.43;nan;102457.47;4979148;28;20044;-75
2021/04/24 10:30:25;;;;;;;11.50;6.25;;;;;;;12.46;nan;102455.47;4983669;28;20030;-74
2021/04/24 10:32:52;;;;;;;9.82;3.95;;;;;;;13.06;nan;102453.06;4978900;28;20022;-74
2021/04/24 10:35:18;;;;;;;10.45;4.40;;;;;;;13.37;nan;102456.69;4979692;28;20034;-75
2021/04/24 10:37:51;;;;;;;4.97;2.53;;;;;;;13.90;nan;102451.47;4979236;28;20052;-75
2021/04/24 10:40:18;;;;;;;5.18;2.20;;;;;;;13.32;nan;102456.56;4995189;28;20046;-74
2021/04/24 10:42:50;;;;;;;5.55;2.30;;;;;;;13.48;nan;102443.31;4981559;28;20052;-75
2021/04/24 10:45:31;;;;;;;5.85;2.10;;;;;;;12.11;nan;102441.69;4996665;28;20095;-75
2021/04/24 10:47:58;;;;;;;7.68;2.38;;;;;;;12.56;nan;102444.22;4993717;28;20077;-74
2021/04/24 10:50:39;;;;;;;5.07;2.53;;;;;;;12.87;nan;102438.75;4990868;28;20030;-74
2021/04/24 10:53:31;;;;;;;7.07;2.45;;;;;;;13.37;nan;102435.97;4968546;28;20018;-74
2021/04/24 10:55:59;;;;;;;3.67;2.08;;;;;;;13.54;nan;102442.41;4994402;28;20046;-73
2021/04/24 10:58:27;;;;;;;5.47;2.35;;;;;;;11.85;nan;102447.19;4977068;28;20022;-74
2021/04/24 11:00:59;;;;;;;6.30;2.40;;;;;;;11.94;nan;102451.28;4977711;28;20136;-74
2021/04/24 11:03:34;;;;;;;4.13;2.50;;;;;;;11.95;nan;102450.25;4975289;28;20037;-73
2021/04/24 11:06:23;;;;;;;3.83;2.15;;;;;;;11.69;nan;102453.88;4989390;28;20045;-73
2021/04/24 11:09:10;;;;;;;6.63;2.08;;;;;;;12.08;nan;102451.00;4975195;28;20031;-73
2021/04/24 11:11:38;;;;;;;4.28;1.90;;;;;;;12.34;nan;102449.97;4974358;28;20145;-73
2021/04/24 11:14:04;;;;;;;4.28;2.40;;;;;;;11.96;nan;102454.56;4993945;28;20034;-74
2021/04/24 11:16:32;;;;;;;7.25;3.03;;;;;;;12.34;nan;102454.53;4996521;28;20041;-74
2021/04/24 11:18:59;;;;;;;8.48;2.67;;;;;;;12.37;nan;102452.22;4994598;28;20030;-73
2021/04/24 11:21:27;;;;;;;5.18;2.50;;;;;;;12.43;nan;102450.53;4997673;28;20071;-73
2021/04/24 11:23:56;;;;;;;5.15;2.60;;;;;;;12.61;nan;102450.59;4976761;28;20044;-74
2021/04/24 11:26:30;;;;;;;8.43;3.25;;;;;;;12.62;nan;102449.56;4975307;28;20476;-74
2021/04/24 11:29:02;;;;;;;10.02;2.95;;;;;;;13.43;nan;102447.72;4992990;28;20504;-74
2021/04/24 11:31:45;;;;;;;5.43;2.70;;;;;;;14.12;nan;102447.19;4994600;28;20488;-74
2021/04/24 11:34:45;;;;;;;7.80;2.88;;;;;;;14.17;nan;102438.41;4975808;28;20030;-75
2021/04/24 11:40:06;;;;;;;5.82;2.58;;;;;;;14.13;nan;102440.75;4994904;28;21999;-74
2021/04/24 11:42:34;;;;;;;6.25;2.63;;;;;;;14.31;nan;102442.53;4998954;28;20026;-74
2021/04/24 11:44:59;;;;;;;5.15;2.78;;;;;;;13.42;nan;102444.19;4996627;28;21202;-74
2021/04/24 11:47:43;;;;;;;5.95;2.25;;;;;;;12.91;nan;102453.41;4997358;28;20040;-74
2021/04/24 11:50:13;;;;;;;3.45;2.13;;;;;;;12.89;nan;102455.50;4995363;28;20030;-74
2021/04/24 11:52:39;;;;;;;3.65;2.15;;;;;;;12.76;nan;102450.28;4995606;28;20198;-74